createdAt,value
2018-03-08T00:02:18.415Z,99.80
2018-03-08T00:04:46.063Z,99.90
2018-03-08T00:07:13.631Z,99.60
2018-03-08T00:09:41.314Z,99.60
2018-03-08T00:12:08.875Z,99.50
2018-03-08T00:14:36.462Z,99.00
2018-03-08T00:17:04.036Z,98.90
2018-03-08T00:19:31.590Z,99.10
2018-03-08T00:21:59.153Z,98.80
2018-03-08T00:24:26.729Z,98.80
2018-03-08T00:26:55.053Z,98.80
2018-03-08T00:29:22.597Z,99.00
2018-03-08T00:31:50.156Z,98.60
2018-03-08T00:34:17.820Z,98.60
2018-03-08T00:36:45.385Z,98.70
2018-03-08T00:39:13.028Z,98.80
2018-03-08T00:41:40.593Z,98.50
2018-03-08T00:44:08.233Z,98.60
2018-03-08T00:46:36.577Z,98.60
2018-03-08T00:49:04.138Z,98.60
2018-03-08T00:51:31.720Z,98.40
2018-03-08T00:53:59.283Z,98.40
2018-03-08T00:56:26.964Z,98.20
2018-03-08T00:58:55.448Z,98.10
2018-03-08T01:01:23.028Z,98.10
2018-03-08T01:03:50.618Z,98.30
2018-03-08T01:06:18.218Z,98.20
2018-03-08T01:08:46.539Z,97.80
2018-03-08T01:11:14.121Z,97.80
2018-03-08T01:13:41.665Z,98.00
2018-03-08T01:16:09.233Z,97.90
2018-03-08T01:18:36.818Z,97.50
2018-03-08T01:21:04.377Z,97.40
2018-03-08T01:23:31.968Z,97.50
2018-03-08T01:26:00.282Z,97.00
2018-03-08T01:28:27.927Z,96.90
2018-03-08T01:30:55.454Z,97.10
2018-03-08T01:33:23.776Z,97.20
2018-03-08T01:35:51.326Z,97.20
2018-03-08T01:38:18.929Z,97.50
2018-03-08T01:40:46.457Z,97.60
2018-03-08T01:43:14.026Z,97.70
2018-03-08T01:45:41.589Z,97.70
2018-03-08T01:48:09.153Z,98.00
2018-03-08T01:50:36.762Z,98.30
2018-03-08T01:53:04.502Z,98.40
2018-03-08T01:55:32.953Z,98.80
2018-03-08T01:58:00.520Z,98.80
2018-03-08T02:00:28.087Z,98.90
2018-03-08T02:02:55.659Z,98.90
2018-03-08T02:05:23.357Z,98.70
2018-03-08T02:07:50.917Z,98.80
2018-03-08T02:10:18.525Z,98.60
2018-03-08T02:12:46.217Z,98.60
2018-03-08T02:15:14.557Z,98.90
2018-03-08T02:17:42.179Z,98.90
2018-03-08T02:20:09.829Z,99.10
2018-03-08T02:22:38.179Z,99.00
2018-03-08T02:25:05.742Z,99.00
2018-03-08T02:27:33.352Z,99.00
2018-03-08T02:30:00.914Z,99.10
2018-03-08T02:32:28.482Z,99.20
2018-03-08T02:34:56.046Z,99.10
2018-03-08T02:37:23.602Z,99.00
2018-03-08T02:39:51.149Z,99.00
2018-03-08T02:42:18.710Z,98.90
2018-03-08T02:44:46.415Z,98.90
2018-03-08T02:47:13.982Z,98.90
2018-03-08T02:49:43.056Z,99.30
2018-03-08T02:52:10.610Z,98.90
2018-03-08T02:54:38.159Z,99.00
2018-03-08T02:57:05.745Z,99.20
2018-03-08T02:59:33.300Z,99.30
2018-03-08T03:02:00.849Z,99.40
2018-03-08T03:04:28.590Z,99.50
2018-03-08T03:06:56.150Z,99.70
2018-03-08T03:09:23.708Z,99.60
2018-03-08T03:11:51.278Z,99.70
2018-03-08T03:14:18.830Z,99.70
2018-03-08T03:16:46.389Z,99.90
2018-03-08T03:19:14.462Z,99.80
2018-03-08T03:21:42.025Z,99.90
2018-03-08T03:24:09.585Z,99.90
2018-03-08T03:26:37.135Z,99.90
2018-03-08T03:29:04.698Z,99.90
2018-03-08T03:31:32.263Z,99.90
2018-03-08T03:33:59.813Z,99.90
2018-03-08T03:36:27.365Z,99.90
2018-03-08T03:38:54.926Z,99.90
2018-03-08T03:41:22.498Z,99.90
2018-03-08T03:43:50.055Z,99.90
2018-03-08T03:46:17.610Z,99.90
2018-03-08T03:48:45.157Z,99.90
2018-03-08T03:51:12.713Z,99.90
2018-03-08T03:53:41.058Z,99.90
2018-03-08T03:56:08.634Z,99.90
2018-03-08T03:58:36.184Z,99.90
2018-03-08T04:01:07.904Z,99.90
2018-03-08T04:03:35.465Z,99.90
2018-03-08T04:06:03.048Z,99.90
2018-03-08T04:08:30.629Z,99.90
2018-03-08T04:10:58.269Z,99.90
2018-03-08T04:13:25.818Z,99.90
2018-03-08T04:15:53.385Z,99.90
2018-03-08T04:18:20.950Z,99.90
2018-03-08T04:20:48.513Z,99.90
2018-03-08T04:23:16.087Z,99.90
2018-03-08T04:25:43.642Z,99.90
2018-03-08T04:28:11.260Z,99.90
2018-03-08T04:30:38.808Z,99.90
2018-03-08T04:33:06.386Z,99.90
2018-03-08T04:35:33.953Z,99.90
2018-03-08T04:38:01.509Z,99.90
2018-03-08T04:40:29.073Z,99.90
2018-03-08T04:42:56.626Z,99.90
2018-03-08T04:45:24.186Z,99.90
2018-03-08T04:47:51.801Z,99.90
2018-03-08T04:50:20.110Z,99.90
2018-03-08T04:52:47.673Z,99.90
2018-03-08T04:55:15.213Z,99.90
2018-03-08T04:57:42.791Z,99.90
2018-03-08T05:00:10.351Z,99.90
2018-03-08T05:02:37.925Z,99.80
2018-03-08T05:05:05.558Z,99.90
2018-03-08T05:07:33.163Z,99.90
2018-03-08T05:10:00.756Z,99.90
2018-03-08T05:12:28.297Z,99.90
2018-03-08T05:14:55.874Z,99.90
2018-03-08T05:17:24.200Z,99.90
2018-03-08T05:19:51.848Z,99.90
2018-03-08T05:22:19.433Z,99.90
2018-03-08T05:24:47.166Z,99.90
2018-03-08T05:27:14.720Z,99.90
2018-03-08T05:29:43.043Z,99.90
2018-03-08T05:32:10.586Z,99.90
2018-03-08T05:34:38.158Z,99.90
2018-03-08T05:37:05.882Z,99.90
2018-03-08T05:39:33.486Z,99.90
2018-03-08T05:42:01.029Z,99.90
2018-03-08T05:44:28.604Z,99.90
2018-03-08T05:46:56.931Z,99.90
2018-03-08T05:49:25.275Z,99.90
2018-03-08T05:51:52.827Z,99.90
2018-03-08T05:54:20.391Z,99.90
2018-03-08T05:56:47.955Z,99.90
2018-03-08T05:59:15.521Z,99.90
2018-03-08T06:01:43.094Z,99.90
2018-03-08T06:04:10.649Z,99.90
2018-03-08T06:06:38.226Z,99.90
2018-03-08T06:09:07.459Z,99.90
2018-03-08T06:11:35.926Z,99.90
2018-03-08T06:14:03.494Z,99.90
2018-03-08T06:16:31.123Z,99.90
2018-03-08T06:18:59.447Z,99.90
2018-03-08T06:21:26.993Z,99.90
2018-03-08T06:23:54.562Z,99.90
2018-03-08T06:26:22.176Z,99.90
2018-03-08T06:28:49.740Z,99.90
2018-03-08T06:31:17.289Z,99.90
2018-03-08T06:33:45.630Z,99.90
2018-03-08T06:36:13.219Z,99.90
2018-03-08T06:38:41.584Z,99.70
2018-03-08T06:41:09.275Z,99.70
2018-03-08T06:43:39.180Z,99.90
2018-03-08T06:46:07.213Z,99.90
2018-03-08T06:48:34.792Z,99.90
2018-03-08T06:51:02.351Z,99.80
2018-03-08T06:53:29.904Z,99.70
2018-03-08T06:55:57.508Z,99.70
2018-03-08T06:58:25.865Z,99.50
2018-03-08T07:00:53.426Z,99.50
2018-03-08T07:03:20.993Z,99.60
2018-03-08T07:05:48.557Z,99.40
2018-03-08T07:08:16.141Z,99.40
2018-03-08T07:10:43.702Z,99.50
2018-03-08T07:13:11.242Z,99.30
2018-03-08T07:15:38.825Z,98.90
2018-03-08T07:18:06.368Z,98.50
2018-03-08T07:20:34.704Z,97.80
2018-03-08T07:23:02.306Z,97.90
2018-03-08T07:25:30.824Z,97.10
2018-03-08T07:27:58.582Z,97.10
2018-03-08T07:30:26.872Z,96.70
2018-03-08T07:32:54.448Z,96.30
2018-03-08T07:35:22.016Z,96.20
2018-03-08T07:37:49.593Z,95.70
2018-03-08T07:40:17.158Z,95.80
2018-03-08T07:42:44.738Z,95.90
2018-03-08T07:45:13.057Z,95.70
2018-03-08T07:47:40.633Z,95.70
2018-03-08T07:50:08.973Z,95.50
2018-03-08T07:52:36.577Z,95.30
2018-03-08T07:55:04.209Z,95.30
2018-03-08T07:57:31.809Z,95.50
2018-03-08T07:59:59.527Z,95.60
2018-03-08T08:02:27.075Z,95.50
2018-03-08T08:05:06.318Z,95.90
2018-03-08T08:07:45.803Z,95.80
2018-03-08T08:10:13.403Z,95.90
2018-03-08T08:12:40.957Z,96.00
2018-03-08T08:15:08.526Z,95.80
2018-03-08T08:17:36.081Z,95.30
2018-03-08T08:20:03.666Z,95.20
2018-03-08T08:22:31.260Z,93.70
2018-03-08T08:24:58.831Z,93.30
2018-03-08T08:27:26.463Z,93.10
2018-03-08T08:29:54.205Z,92.90
2018-03-08T08:32:21.774Z,92.60
2018-03-08T08:34:49.399Z,92.40
2018-03-08T08:37:16.966Z,92.10
2018-03-08T08:39:44.568Z,92.30
2018-03-08T08:42:12.212Z,92.30
2018-03-08T08:44:39.758Z,92.10
2018-03-08T08:47:07.363Z,92.30
2018-03-08T08:49:35.094Z,92.20
2018-03-08T08:52:02.688Z,92.40
2018-03-08T08:54:30.251Z,92.40
2018-03-08T08:56:57.832Z,92.50
2018-03-08T08:59:25.545Z,92.30
2018-03-08T09:01:53.107Z,92.20
2018-03-08T09:04:20.739Z,91.80
2018-03-08T09:06:48.325Z,92.00
2018-03-08T09:09:15.916Z,91.80
2018-03-08T09:11:43.489Z,92.00
2018-03-08T09:14:11.090Z,91.70
2018-03-08T09:16:38.658Z,91.70
2018-03-08T09:19:06.195Z,91.40
2018-03-08T09:21:34.671Z,91.80
2018-03-08T09:24:02.989Z,91.60
2018-03-08T09:26:30.561Z,91.60
2018-03-08T09:28:58.198Z,92.00
2018-03-08T09:31:25.782Z,91.90
2018-03-08T09:33:53.929Z,91.10
2018-03-08T09:36:21.427Z,91.00
2018-03-08T09:38:49.162Z,90.80
2018-03-08T09:41:16.776Z,91.00
2018-03-08T09:43:45.345Z,90.40
2018-03-08T09:46:13.789Z,90.40
2018-03-08T09:48:45.204Z,90.40
2018-03-08T09:51:14.122Z,89.80
2018-03-08T09:53:41.674Z,89.80
2018-03-08T09:56:09.573Z,89.10
2018-03-08T09:58:37.495Z,88.70
2018-03-08T10:01:06.042Z,88.30
2018-03-08T10:03:33.634Z,88.20
2018-03-08T10:06:01.956Z,88.20
2018-03-08T10:08:29.564Z,88.20
2018-03-08T10:10:57.121Z,88.40
2018-03-08T10:13:24.712Z,89.10
2018-03-08T10:15:52.325Z,88.30
2018-03-08T10:18:19.969Z,88.30
2018-03-08T10:20:47.522Z,88.30
2018-03-08T10:23:15.097Z,87.30
2018-03-08T10:25:42.829Z,87.00
2018-03-08T10:28:10.461Z,85.30
2018-03-08T10:30:38.838Z,84.30
2018-03-08T10:33:07.150Z,82.90
2018-03-08T10:35:34.718Z,82.90
2018-03-08T10:38:02.341Z,82.80
2018-03-08T10:42:58.223Z,82.00
2018-03-08T10:45:25.790Z,81.70
2018-03-08T10:47:53.369Z,82.50
2018-03-08T10:50:20.999Z,81.90
2018-03-08T10:52:49.289Z,81.20
2018-03-08T10:55:17.435Z,81.20
2018-03-08T10:57:44.426Z,81.90
2018-03-08T11:00:12.016Z,82.40
2018-03-08T11:02:45.101Z,82.40
2018-03-08T11:05:13.418Z,81.70
2018-03-08T11:07:40.990Z,81.70
2018-03-08T11:10:08.546Z,82.30
2018-03-08T11:12:36.189Z,80.70
2018-03-08T11:15:05.362Z,81.20
2018-03-08T11:17:33.842Z,80.80
2018-03-08T11:20:02.169Z,80.10
2018-03-08T11:22:29.752Z,80.10
2018-03-08T11:24:57.298Z,80.60
2018-03-08T11:27:24.873Z,79.90
2018-03-08T11:29:52.522Z,78.50
2018-03-08T11:32:20.075Z,78.20
2018-03-08T11:34:47.697Z,77.50
2018-03-08T11:37:15.298Z,77.90
2018-03-08T11:39:42.879Z,77.00
2018-03-08T11:42:10.443Z,76.90
2018-03-08T11:44:38.033Z,77.70
2018-03-08T11:47:06.358Z,78.10
2018-03-08T11:49:33.921Z,78.10
2018-03-08T11:52:01.484Z,78.10
2018-03-08T11:54:29.060Z,79.00
2018-03-08T11:56:56.623Z,80.40
2018-03-08T11:59:25.554Z,81.10
2018-03-08T12:01:53.138Z,82.10
2018-03-08T12:04:20.730Z,82.10
2018-03-08T12:06:48.277Z,82.80
2018-03-08T12:09:15.842Z,83.30
2018-03-08T12:11:43.506Z,83.60
2018-03-08T12:14:11.796Z,84.60
2018-03-08T12:16:39.385Z,83.80
2018-03-08T12:19:06.953Z,82.00
2018-03-08T12:21:34.533Z,80.80
2018-03-08T12:24:02.097Z,80.30
2018-03-08T12:26:29.658Z,80.00
2018-03-08T12:28:57.229Z,79.60
2018-03-08T12:31:24.790Z,80.20
2018-03-08T12:33:52.357Z,80.70
2018-03-08T12:36:19.937Z,79.70
2018-03-08T12:38:47.492Z,79.00
2018-03-08T12:41:15.106Z,78.80
2018-03-08T12:43:43.386Z,79.40
2018-03-08T12:46:10.977Z,79.30
2018-03-08T12:48:38.539Z,79.70
2018-03-08T12:51:06.457Z,79.90
2018-03-08T12:53:34.015Z,79.70
2018-03-08T12:56:01.626Z,79.60
2018-03-08T12:58:29.156Z,79.60
2018-03-08T13:00:56.735Z,80.00
2018-03-08T13:03:24.290Z,80.20
2018-03-08T13:05:51.872Z,80.60
2018-03-08T13:08:19.497Z,81.20
2018-03-08T13:10:47.075Z,81.10
2018-03-08T13:13:14.725Z,82.10
2018-03-08T13:15:42.307Z,82.20
2018-03-08T13:18:09.886Z,83.00
2018-03-08T13:20:37.447Z,85.60
2018-03-08T13:23:05.015Z,86.10
2018-03-08T13:25:33.466Z,86.40
2018-03-08T13:28:01.109Z,86.40
2018-03-08T13:30:28.672Z,86.70
2018-03-08T13:32:56.256Z,87.00
2018-03-08T13:35:23.790Z,89.00
2018-03-08T13:37:51.419Z,89.80
2018-03-08T13:40:19.006Z,88.20
2018-03-08T13:42:46.572Z,87.80
2018-03-08T13:45:14.174Z,89.00
2018-03-08T13:47:41.738Z,89.00
2018-03-08T13:50:10.130Z,87.30
2018-03-08T13:52:38.491Z,85.80
2018-03-08T13:55:06.097Z,85.80
2018-03-08T13:57:33.653Z,86.00
2018-03-08T14:00:01.609Z,87.80
2018-03-08T14:02:29.918Z,92.30
2018-03-08T14:04:57.524Z,92.30
2018-03-08T14:07:25.126Z,93.50
2018-03-08T14:09:52.705Z,95.00
2018-03-08T14:12:20.257Z,95.80
2018-03-08T14:14:47.823Z,97.10
2018-03-08T14:17:15.360Z,97.40
2018-03-08T14:19:42.933Z,97.80
2018-03-08T14:22:10.465Z,97.80
2018-03-08T14:24:39.433Z,98.10
2018-03-08T14:27:07.146Z,98.40
2018-03-08T14:29:34.712Z,97.40
2018-03-08T14:32:03.297Z,97.00
2018-03-08T14:34:30.850Z,96.50
2018-03-08T14:36:59.641Z,96.40
2018-03-08T14:39:27.201Z,96.80
2018-03-08T14:41:54.766Z,97.20
2018-03-08T14:44:22.329Z,97.50
2018-03-08T14:46:49.870Z,97.50
2018-03-08T14:49:17.474Z,97.60
2018-03-08T14:51:45.048Z,97.10
2018-03-08T14:54:12.647Z,97.20
2018-03-08T14:56:40.210Z,97.60
2018-03-08T14:59:07.774Z,97.40
2018-03-08T15:01:35.324Z,97.00
2018-03-08T15:04:02.892Z,97.50
2018-03-08T15:06:30.531Z,96.90
2018-03-08T15:08:59.966Z,96.60
2018-03-08T15:11:28.321Z,96.70
2018-03-08T15:13:55.895Z,97.00
2018-03-08T15:16:23.449Z,97.30
2018-03-08T15:18:51.022Z,97.70
2018-03-08T15:21:18.600Z,98.20
2018-03-08T15:23:46.242Z,98.40
2018-03-08T15:26:13.775Z,98.20
2018-03-08T15:28:41.350Z,97.70
2018-03-08T15:31:08.930Z,98.20
2018-03-08T15:33:36.508Z,98.50
2018-03-08T15:36:04.068Z,98.80
2018-03-08T15:38:31.612Z,99.30
2018-03-08T15:40:59.205Z,99.80
2018-03-08T15:43:26.745Z,99.90
2018-03-08T15:45:54.442Z,99.40
2018-03-08T15:48:22.769Z,99.80
2018-03-08T15:50:50.346Z,99.80
2018-03-08T15:53:17.881Z,99.90
2018-03-08T15:55:46.315Z,99.90
2018-03-08T15:58:13.917Z,99.90
2018-03-08T16:00:41.502Z,99.90
2018-03-08T16:03:09.070Z,99.90
2018-03-08T16:05:36.689Z,99.90
2018-03-08T16:10:58.112Z,99.90
2018-03-08T16:13:26.588Z,99.90
2018-03-08T16:15:54.933Z,99.90
2018-03-08T16:18:22.509Z,99.90
2018-03-08T16:20:50.024Z,99.90
2018-03-08T16:23:17.631Z,99.80
2018-03-08T16:25:45.166Z,99.90
2018-03-08T16:28:12.777Z,99.90
2018-03-08T16:30:40.321Z,99.90
2018-03-08T16:33:07.907Z,99.90
2018-03-08T16:35:35.514Z,99.90
2018-03-08T16:38:03.085Z,99.90
2018-03-08T16:40:30.626Z,99.70
2018-03-08T16:42:58.169Z,99.90
2018-03-08T16:45:25.732Z,99.90
2018-03-08T16:47:53.332Z,99.90
2018-03-08T16:50:20.926Z,99.90
2018-03-08T16:52:48.466Z,99.90
2018-03-08T16:55:16.806Z,99.90
2018-03-08T16:57:45.259Z,99.90
2018-03-08T17:00:14.437Z,99.90
2018-03-08T17:02:42.739Z,99.90
2018-03-08T17:05:10.340Z,99.90
2018-03-08T17:07:37.873Z,99.90
2018-03-08T17:10:05.455Z,99.90
2018-03-08T17:12:33.816Z,99.90
2018-03-08T17:15:02.153Z,99.80
2018-03-08T17:17:29.699Z,99.90
2018-03-08T17:19:58.108Z,98.90
2018-03-08T17:22:25.652Z,98.90
2018-03-08T17:24:53.227Z,99.10
2018-03-08T17:27:20.828Z,98.80
2018-03-08T17:29:48.385Z,99.10
2018-03-08T17:32:16.119Z,98.90
2018-03-08T17:34:43.752Z,99.00
2018-03-08T17:37:11.325Z,99.40
2018-03-08T17:39:38.850Z,99.00
2018-03-08T17:42:07.318Z,99.10
2018-03-08T17:44:34.854Z,99.10
2018-03-08T17:47:02.456Z,99.40
2018-03-08T17:49:30.209Z,99.10
2018-03-08T17:51:58.558Z,99.20
2018-03-08T17:54:26.668Z,99.40
2018-03-08T17:56:54.514Z,99.70
2018-03-08T17:59:22.067Z,99.70
2018-03-08T18:01:49.626Z,99.90
2018-03-08T18:04:17.185Z,99.90
2018-03-08T18:06:44.754Z,99.90
2018-03-08T18:09:12.309Z,99.90
2018-03-08T18:11:39.864Z,99.90
2018-03-08T18:14:07.438Z,99.90
2018-03-08T18:16:35.005Z,99.90
2018-03-08T18:19:03.542Z,99.90
2018-03-08T18:21:31.202Z,99.90
2018-03-08T18:23:58.773Z,99.90
2018-03-08T18:26:26.378Z,99.90
2018-03-08T18:28:53.941Z,99.90
2018-03-08T18:31:22.334Z,99.90
2018-03-08T18:33:50.002Z,99.90
2018-03-08T18:36:18.344Z,99.90
2018-03-08T18:38:45.913Z,99.90
2018-03-08T18:41:13.707Z,99.90
2018-03-08T18:43:41.273Z,99.90
2018-03-08T18:46:08.880Z,99.90
2018-03-08T18:48:36.466Z,99.90
2018-03-08T18:51:04.033Z,99.90
2018-03-08T18:53:31.705Z,99.90
2018-03-08T18:56:00.082Z,99.90
2018-03-08T18:58:28.390Z,99.90
2018-03-08T19:00:55.956Z,99.90
2018-03-08T19:03:23.533Z,99.90
2018-03-08T19:05:51.140Z,99.90
2018-03-08T19:08:19.501Z,99.90
2018-03-08T19:10:47.889Z,99.90
2018-03-08T19:13:16.248Z,99.90
2018-03-08T19:15:43.795Z,99.90
2018-03-08T19:18:11.397Z,99.90
2018-03-08T19:20:38.991Z,99.90
2018-03-08T19:23:06.587Z,99.90
2018-03-08T19:25:34.281Z,99.90
2018-03-08T19:28:02.620Z,99.90
2018-03-08T19:30:30.197Z,99.90
2018-03-08T19:32:57.792Z,99.90
2018-03-08T19:35:25.339Z,99.90
2018-03-08T19:37:54.196Z,99.90
2018-03-08T19:40:21.762Z,99.90
2018-03-08T19:42:49.339Z,99.90
2018-03-08T19:45:17.687Z,99.90
2018-03-08T19:47:45.874Z,99.90
2018-03-08T19:50:13.490Z,99.90
2018-03-08T19:52:41.046Z,99.90
2018-03-08T19:55:08.594Z,99.90
2018-03-08T19:57:37.162Z,99.90
2018-03-08T20:00:05.512Z,99.90
2018-03-08T20:02:34.872Z,99.90
2018-03-08T20:05:03.339Z,99.90
2018-03-08T20:07:30.905Z,99.90
2018-03-08T20:09:58.775Z,99.90
2018-03-08T20:12:27.416Z,99.90
2018-03-08T20:14:54.985Z,99.90
2018-03-08T20:17:24.631Z,99.90
2018-03-08T20:19:52.181Z,99.90
2018-03-08T20:22:19.782Z,99.90
2018-03-08T20:24:48.373Z,99.90
2018-03-08T20:27:15.956Z,99.90
2018-03-08T20:29:43.511Z,99.90
2018-03-08T20:32:11.955Z,99.90
2018-03-08T20:34:39.518Z,99.90
2018-03-08T20:37:07.102Z,99.90
2018-03-08T20:39:34.682Z,99.90
2018-03-08T20:42:03.894Z,99.90
2018-03-08T20:44:31.466Z,99.90
2018-03-08T20:46:59.054Z,99.90
2018-03-08T20:49:26.613Z,99.90
2018-03-08T20:51:54.177Z,99.90
2018-03-08T20:54:21.751Z,99.90
2018-03-08T20:56:49.310Z,99.90
2018-03-08T20:59:16.873Z,99.90
2018-03-08T21:01:44.624Z,99.90
2018-03-08T21:04:12.178Z,99.80
2018-03-08T21:06:39.944Z,99.80
2018-03-08T21:09:07.501Z,99.50
2018-03-08T21:11:35.082Z,99.30
2018-03-08T21:14:02.647Z,99.50
2018-03-08T21:16:30.681Z,99.40
2018-03-08T21:18:58.249Z,99.80
2018-03-08T21:21:25.804Z,99.30
2018-03-08T21:23:53.364Z,99.30
2018-03-08T21:26:20.918Z,99.60
2018-03-08T21:28:48.510Z,99.50
2018-03-08T21:31:16.074Z,99.90
2018-03-08T21:33:43.723Z,99.90
2018-03-08T21:36:11.269Z,99.90
2018-03-08T21:38:38.832Z,99.90
2018-03-08T21:41:06.393Z,99.90
2018-03-08T21:43:34.002Z,99.90
2018-03-08T21:46:02.368Z,99.90
2018-03-08T21:48:29.923Z,99.90
2018-03-08T21:50:58.384Z,99.90
2018-03-08T21:53:25.954Z,99.90
2018-03-08T21:55:53.530Z,99.90
2018-03-08T21:58:21.105Z,99.90
2018-03-08T22:00:49.422Z,99.90
2018-03-08T22:03:16.981Z,99.90
2018-03-08T22:05:44.640Z,99.90
2018-03-08T22:08:12.173Z,99.90
2018-03-08T22:10:39.766Z,99.90
2018-03-08T22:13:07.348Z,99.90
2018-03-08T22:15:34.966Z,99.90
2018-03-08T22:18:02.487Z,99.90
2018-03-08T22:20:30.074Z,99.90
2018-03-08T22:22:58.490Z,99.90
2018-03-08T22:25:26.084Z,99.90
2018-03-08T22:27:53.667Z,99.90
2018-03-08T22:30:21.287Z,99.90
2018-03-08T22:32:48.922Z,99.90
2018-03-08T22:35:16.475Z,99.90
2018-03-08T22:37:44.044Z,99.90
2018-03-08T22:40:11.654Z,99.90
2018-03-08T22:42:39.226Z,99.90
2018-03-08T22:45:07.626Z,99.90
2018-03-08T22:47:35.261Z,99.90
2018-03-08T22:50:03.010Z,99.90
2018-03-08T22:52:30.589Z,99.90
2018-03-08T22:54:58.173Z,99.90
2018-03-08T22:57:26.694Z,99.90
2018-03-08T22:59:54.266Z,99.90
2018-03-08T23:02:27.582Z,99.90
2018-03-08T23:04:55.965Z,99.90
2018-03-08T23:07:23.589Z,99.90
2018-03-08T23:09:51.157Z,99.90
2018-03-08T23:12:18.952Z,99.90
2018-03-08T23:14:46.657Z,99.90
2018-03-08T23:17:15.190Z,99.90
2018-03-08T23:19:42.911Z,99.90
2018-03-08T23:22:10.641Z,99.90
2018-03-08T23:24:39.081Z,99.90
2018-03-08T23:27:06.812Z,99.90
2018-03-08T23:29:34.480Z,99.90
2018-03-08T23:32:02.192Z,99.90
2018-03-08T23:34:29.922Z,99.90
2018-03-08T23:39:30.665Z,99.90
2018-03-08T23:41:58.319Z,99.90
2018-03-08T23:44:25.957Z,99.90
2018-03-08T23:46:53.534Z,99.90
2018-03-08T23:49:21.108Z,99.90
2018-03-08T23:51:48.700Z,99.90
2018-03-08T23:54:16.317Z,99.90
2018-03-08T23:56:44.053Z,99.90
2018-03-08T23:59:12.385Z,99.90
